createdAt,value
2023-01-01T00:01:59.131Z,7.32
2023-01-01T00:04:43.009Z,7.37
2023-01-01T00:07:28.352Z,7.35
2023-01-01T00:10:30.517Z,7.33
2023-01-01T00:13:15.381Z,7.28
2023-01-01T00:16:05.633Z,7.19
2023-01-01T00:18:49.613Z,6.99
2023-01-01T00:21:33.380Z,6.93
2023-01-01T00:24:18.538Z,6.66
2023-01-01T00:27:02.367Z,6.60
2023-01-01T00:29:46.105Z,6.33
2023-01-01T00:32:29.982Z,6.73
2023-01-01T00:35:13.791Z,6.74
2023-01-01T00:37:57.674Z,6.76
2023-01-01T00:40:42.760Z,6.79
2023-01-01T00:43:26.600Z,6.73
2023-01-01T00:46:11.514Z,6.67
2023-01-01T00:48:55.382Z,6.46
2023-01-01T00:51:39.194Z,6.44
2023-01-01T00:54:23.018Z,6.66
2023-01-01T00:57:08.353Z,6.72
2023-01-01T00:59:52.198Z,6.80
2023-01-01T01:02:36.338Z,6.68
2023-01-01T01:05:20.368Z,6.95
2023-01-01T01:08:04.326Z,6.89
2023-01-01T01:10:48.125Z,6.96
2023-01-01T01:13:33.453Z,7.08
2023-01-01T01:16:20.619Z,7.05
2023-01-01T01:19:07.295Z,7.10
2023-01-01T01:21:52.126Z,7.10
2023-01-01T01:24:35.934Z,6.87
2023-01-01T01:27:19.824Z,7.00
2023-01-01T01:30:05.535Z,6.91
2023-01-01T01:32:49.618Z,6.97
2023-01-01T01:35:34.093Z,7.05
2023-01-01T01:38:17.956Z,6.83
2023-01-01T01:41:01.833Z,6.77
2023-01-01T01:43:53.146Z,6.78
2023-01-01T01:46:42.398Z,6.57
2023-01-01T01:49:30.287Z,6.53
2023-01-01T01:52:14.415Z,6.66
2023-01-01T01:54:59.081Z,6.77
2023-01-01T01:57:43.599Z,6.82
2023-01-01T02:00:27.424Z,6.26
2023-01-01T02:03:17.766Z,6.42
2023-01-01T02:06:03.433Z,6.57
2023-01-01T02:08:48.552Z,6.42
2023-01-01T02:11:32.631Z,6.30
2023-01-01T02:14:16.592Z,6.41
2023-01-01T02:17:07.688Z,6.18
2023-01-01T02:20:13.268Z,6.51
2023-01-01T02:23:28.022Z,6.44
2023-01-01T02:26:40.632Z,6.38
2023-01-01T02:29:33.209Z,6.62
2023-01-01T02:32:22.716Z,6.67
2023-01-01T02:35:29.698Z,6.63
2023-01-01T02:38:19.543Z,6.68
2023-01-01T02:41:09.245Z,6.38
2023-01-01T02:43:53.384Z,6.40
2023-01-01T02:46:38.543Z,6.46
2023-01-01T02:49:22.376Z,6.69
2023-01-01T02:52:11.296Z,6.69
2023-01-01T02:55:03.232Z,6.61
2023-01-01T02:57:54.596Z,6.49
2023-01-01T03:00:39.133Z,6.85
2023-01-01T03:03:30.372Z,5.91
2023-01-01T03:06:24.836Z,6.88
2023-01-01T03:09:19.236Z,6.53
2023-01-01T03:12:11.178Z,6.84
2023-01-01T03:14:59.791Z,6.91
2023-01-01T03:17:51.035Z,6.34
2023-01-01T03:20:42.208Z,6.29
2023-01-01T03:23:31.359Z,6.49
2023-01-01T03:26:17.223Z,6.63
2023-01-01T03:29:05.152Z,6.77
2023-01-01T03:31:53.303Z,6.59
2023-01-01T03:34:42.910Z,6.31
2023-01-01T03:37:31.895Z,6.44
2023-01-01T03:40:17.597Z,6.38
2023-01-01T03:43:07.300Z,6.53
2023-01-01T03:45:53.459Z,6.36
2023-01-01T03:49:02.639Z,6.42
2023-01-01T03:52:04.235Z,6.10
2023-01-01T03:54:59.973Z,6.00
2023-01-01T03:57:48.312Z,6.23
2023-01-01T04:00:35.915Z,6.51
2023-01-01T04:03:24.631Z,6.56
2023-01-01T04:06:10.121Z,6.59
2023-01-01T04:08:58.083Z,6.70
2023-01-01T04:12:05.201Z,6.61
2023-01-01T04:14:48.950Z,6.63
2023-01-01T04:17:32.662Z,6.69
2023-01-01T04:20:17.291Z,6.65
2023-01-01T04:23:02.528Z,6.45
2023-01-01T04:25:46.361Z,6.45
2023-01-01T04:28:31.489Z,6.56
2023-01-01T04:31:15.424Z,6.71
2023-01-01T04:33:59.358Z,6.50
2023-01-01T04:36:43.397Z,5.55
2023-01-01T04:39:27.137Z,6.44
2023-01-01T04:42:10.956Z,6.49
2023-01-01T04:44:56.169Z,6.48
2023-01-01T04:47:40.031Z,6.69
2023-01-01T04:50:23.858Z,6.50
2023-01-01T04:53:07.584Z,6.65
2023-01-01T04:55:51.592Z,6.22
2023-01-01T04:58:35.877Z,6.33
2023-01-01T05:01:23.494Z,6.20
2023-01-01T05:04:07.522Z,6.51
2023-01-01T05:06:51.360Z,6.62
2023-01-01T05:09:35.180Z,6.98
2023-01-01T05:12:18.955Z,6.99
2023-01-01T05:15:02.759Z,6.15
2023-01-01T05:17:49.041Z,6.80
2023-01-01T05:20:32.790Z,6.10
2023-01-01T05:23:17.081Z,6.61
2023-01-01T05:26:00.876Z,6.46
2023-01-01T05:28:44.892Z,6.58
2023-01-01T05:31:30.283Z,6.40
2023-01-01T05:34:15.623Z,6.45
2023-01-01T05:36:59.370Z,6.32
2023-01-01T05:39:43.091Z,6.23
2023-01-01T05:42:26.949Z,6.20
2023-01-01T05:45:12.293Z,6.27
2023-01-01T05:47:56.656Z,6.20
2023-01-01T05:50:41.833Z,6.31
2023-01-01T05:53:25.671Z,6.36
2023-01-01T05:56:09.603Z,6.55
2023-01-01T05:58:53.796Z,6.61
2023-01-01T06:01:43.432Z,6.81
2023-01-01T06:04:29.604Z,6.80
2023-01-01T06:07:14.721Z,6.73
2023-01-01T06:09:58.526Z,6.88
2023-01-01T06:12:42.364Z,6.92
2023-01-01T06:15:26.216Z,6.74
2023-01-01T06:18:09.943Z,6.62
2023-01-01T06:20:53.882Z,6.79
2023-01-01T06:23:39.797Z,7.43
2023-01-01T06:26:25.099Z,7.53
2023-01-01T06:29:08.935Z,7.78
2023-01-01T06:31:52.788Z,7.49
2023-01-01T06:34:36.550Z,7.60
2023-01-01T06:37:20.471Z,7.63
2023-01-01T06:40:06.956Z,7.84
2023-01-01T06:42:50.792Z,8.16
2023-01-01T06:45:34.590Z,8.20
2023-01-01T06:48:18.453Z,8.27
2023-01-01T06:51:07.661Z,8.34
2023-01-01T06:53:52.141Z,8.30
2023-01-01T06:56:37.877Z,8.10
2023-01-01T06:59:23.264Z,8.48
2023-01-01T07:02:07.110Z,8.64
2023-01-01T07:04:50.911Z,8.64
2023-01-01T07:07:36.109Z,8.58
2023-01-01T07:10:20.111Z,9.10
2023-01-01T07:13:05.527Z,8.99
2023-01-01T07:15:49.487Z,9.45
2023-01-01T07:18:35.402Z,9.29
2023-01-01T07:21:30.231Z,9.58
2023-01-01T07:24:16.168Z,9.75
2023-01-01T07:27:00.146Z,9.55
2023-01-01T07:29:45.618Z,10.42
2023-01-01T07:32:29.626Z,10.55
2023-01-01T07:35:13.676Z,10.46
2023-01-01T07:37:58.127Z,10.69
2023-01-01T07:40:42.856Z,10.82
2023-01-01T07:43:26.874Z,10.85
2023-01-01T07:46:16.472Z,11.14
2023-01-01T07:49:00.510Z,11.02
2023-01-01T07:51:44.524Z,11.05
2023-01-01T07:54:28.546Z,11.15
2023-01-01T07:57:12.896Z,11.25
2023-01-01T07:59:57.226Z,11.60
2023-01-01T08:02:43.046Z,11.42
2023-01-01T08:05:27.436Z,11.78
2023-01-01T08:08:11.801Z,11.85
2023-01-01T08:11:00.307Z,11.81
2023-01-01T08:13:47.922Z,11.92
2023-01-01T08:16:31.879Z,12.19
2023-01-01T08:19:17.450Z,12.20
2023-01-01T08:22:01.566Z,12.02
2023-01-01T08:24:45.567Z,11.86
2023-01-01T08:27:29.558Z,12.25
2023-01-01T08:30:15.541Z,12.01
2023-01-01T08:32:59.467Z,12.25
2023-01-01T08:35:50.310Z,12.55
2023-01-01T08:38:40.571Z,12.28
2023-01-01T08:41:24.614Z,12.28
2023-01-01T08:44:08.768Z,12.21
2023-01-01T08:46:54.673Z,12.63
2023-01-01T08:49:38.660Z,12.58
2023-01-01T08:52:24.124Z,12.37
2023-01-01T08:55:08.791Z,12.64
2023-01-01T08:57:53.330Z,12.43
2023-01-01T09:00:37.401Z,12.58
2023-01-01T09:03:21.685Z,12.85
2023-01-01T09:06:06.240Z,12.55
2023-01-01T09:08:51.691Z,12.54
2023-01-01T09:11:36.030Z,12.67
2023-01-01T09:14:20.426Z,13.06
2023-01-01T09:17:04.928Z,13.26
2023-01-01T09:19:48.980Z,12.78
2023-01-01T09:22:32.993Z,13.19
2023-01-01T09:25:18.705Z,13.43
2023-01-01T09:28:04.756Z,13.36
2023-01-01T09:30:48.747Z,13.64
2023-01-01T09:33:32.721Z,13.55
2023-01-01T09:36:27.752Z,13.49
2023-01-01T09:39:13.789Z,13.54
2023-01-01T09:42:17.901Z,13.59
2023-01-01T09:45:16.745Z,13.77
2023-01-01T09:48:06.506Z,13.77
2023-01-01T09:50:50.648Z,13.75
2023-01-01T09:53:42.006Z,14.04
2023-01-01T09:56:28.331Z,14.11
2023-01-01T09:59:13.699Z,14.03
2023-01-01T10:02:04.042Z,14.27
2023-01-01T10:04:59.521Z,14.28
2023-01-01T10:07:50.459Z,14.11
2023-01-01T10:10:40.838Z,14.54
2023-01-01T10:13:30.069Z,14.56
2023-01-01T10:16:25.836Z,14.50
2023-01-01T10:19:23.114Z,14.60
2023-01-01T10:22:10.929Z,14.32
2023-01-01T10:25:01.453Z,14.41
2023-01-01T10:27:53.967Z,14.69
2023-01-01T10:30:44.335Z,14.71
2023-01-01T10:33:29.874Z,14.64
2023-01-01T10:36:18.172Z,14.82
2023-01-01T10:39:02.256Z,15.12
2023-01-01T10:41:47.151Z,14.94
2023-01-01T10:44:33.046Z,15.16
2023-01-01T10:47:28.901Z,15.08
2023-01-01T10:50:14.383Z,15.15
2023-01-01T10:52:58.796Z,15.60
2023-01-01T10:55:42.844Z,15.42
2023-01-01T10:58:30.246Z,15.68
2023-01-01T11:01:21.169Z,15.49
2023-01-01T11:04:20.808Z,15.70
2023-01-01T11:07:08.129Z,15.53
2023-01-01T11:10:03.130Z,15.73
2023-01-01T11:13:05.210Z,15.78
2023-01-01T11:15:49.952Z,15.90
2023-01-01T11:18:36.697Z,15.86
2023-01-01T11:21:23.409Z,15.69
2023-01-01T11:24:19.675Z,15.87
2023-01-01T11:27:19.812Z,15.87
2023-01-01T11:30:22.402Z,15.99
2023-01-01T11:33:06.827Z,16.43
2023-01-01T11:35:54.214Z,16.58
2023-01-01T11:38:38.209Z,16.50
2023-01-01T11:41:23.458Z,16.64
2023-01-01T11:44:07.397Z,16.73
2023-01-01T11:46:51.341Z,16.66
2023-01-01T11:49:35.836Z,16.84
2023-01-01T11:52:30.277Z,16.83
2023-01-01T11:55:24.042Z,16.83
2023-01-01T11:58:19.994Z,16.92
2023-01-01T12:01:10.312Z,16.73
2023-01-01T12:03:58.681Z,16.79
2023-01-01T12:06:50.285Z,16.58
2023-01-01T12:09:40.173Z,16.39
2023-01-01T12:12:31.657Z,16.72
2023-01-01T12:15:22.773Z,16.52
2023-01-01T12:18:14.460Z,16.73
2023-01-01T12:21:02.911Z,16.49
2023-01-01T12:23:46.930Z,16.54
2023-01-01T12:26:41.560Z,16.85
2023-01-01T12:29:41.874Z,16.80
2023-01-01T12:32:38.735Z,16.58
2023-01-01T12:35:35.237Z,16.76
2023-01-01T12:38:36.366Z,16.88
2023-01-01T12:41:32.675Z,16.80
2023-01-01T12:44:25.641Z,16.65
2023-01-01T12:47:19.685Z,16.75
2023-01-01T12:50:14.807Z,16.99
2023-01-01T12:53:07.651Z,16.95
2023-01-01T12:56:22.585Z,16.90
2023-01-01T12:59:12.413Z,16.85
2023-01-01T13:01:59.714Z,17.13
2023-01-01T13:04:44.922Z,16.74
2023-01-01T13:07:35.889Z,16.74
2023-01-01T13:10:27.961Z,16.84
2023-01-01T13:13:13.107Z,16.94
2023-01-01T13:15:58.557Z,16.60
2023-01-01T13:18:42.526Z,16.86
2023-01-01T13:21:29.890Z,16.81
2023-01-01T13:24:23.916Z,16.57
2023-01-01T13:27:11.953Z,16.68
2023-01-01T13:29:57.211Z,16.49
2023-01-01T13:33:21.549Z,16.79
2023-01-01T13:36:34.049Z,16.74
2023-01-01T13:39:50.834Z,16.66
2023-01-01T13:42:52.593Z,16.70
2023-01-01T13:49:07.887Z,16.68
2023-01-01T13:52:08.225Z,16.58
2023-01-01T13:55:40.344Z,16.30
2023-01-01T13:59:07.985Z,16.27
2023-01-01T14:01:59.552Z,16.23
2023-01-01T14:04:47.503Z,15.96
2023-01-01T14:07:51.291Z,16.13
2023-01-01T14:10:37.665Z,16.07
2023-01-01T14:13:29.780Z,15.88
2023-01-01T14:16:16.257Z,15.88
2023-01-01T14:19:03.587Z,15.77
2023-01-01T14:21:48.041Z,15.66
2023-01-01T14:24:32.400Z,15.53
2023-01-01T14:27:23.184Z,15.59
2023-01-01T14:30:08.924Z,15.24
2023-01-01T14:33:01.778Z,15.35
2023-01-01T14:35:53.999Z,15.05
2023-01-01T14:38:45.213Z,14.77
2023-01-01T14:41:30.490Z,14.39
2023-01-01T14:44:16.816Z,14.15
2023-01-01T14:47:02.005Z,14.01
2023-01-01T14:49:48.449Z,13.58
2023-01-01T14:52:35.672Z,13.38
2023-01-01T14:55:21.518Z,13.17
2023-01-01T14:58:05.696Z,13.14
2023-01-01T15:00:50.171Z,13.24
2023-01-01T15:03:34.305Z,12.99
2023-01-01T15:06:19.781Z,12.91
2023-01-01T15:09:03.656Z,12.66
2023-01-01T15:11:47.843Z,12.39
2023-01-01T15:14:37.530Z,12.64
2023-01-01T15:17:23.514Z,12.78
2023-01-01T15:20:21.067Z,12.54
2023-01-01T15:23:10.282Z,12.63
2023-01-01T15:25:54.594Z,12.41
2023-01-01T15:28:39.720Z,12.14
2023-01-01T15:31:23.971Z,12.23
2023-01-01T15:34:18.045Z,12.30
2023-01-01T15:37:15.727Z,12.10
2023-01-01T15:40:02.408Z,12.40
2023-01-01T15:43:13.188Z,12.33
2023-01-01T15:46:00.869Z,12.26
2023-01-01T15:48:50.382Z,12.24
2023-01-01T15:51:34.572Z,11.86
2023-01-01T15:54:19.841Z,12.13
2023-01-01T15:57:03.946Z,11.77
2023-01-01T15:59:50.705Z,11.62
2023-01-01T16:02:37.622Z,11.66
2023-01-01T16:05:24.966Z,11.43
2023-01-01T16:08:10.914Z,11.52
2023-01-01T16:10:54.755Z,11.61
2023-01-01T16:13:38.527Z,11.38
2023-01-01T16:16:28.872Z,11.48
2023-01-01T16:19:17.596Z,11.29
2023-01-01T16:22:01.310Z,11.49
2023-01-01T16:24:46.451Z,11.55
2023-01-01T16:27:32.179Z,11.52
2023-01-01T16:30:16.797Z,11.36
2023-01-01T16:33:01.038Z,11.44
2023-01-01T16:35:46.618Z,11.13
2023-01-01T16:38:30.546Z,11.39
2023-01-01T16:41:16.578Z,11.40
2023-01-01T16:44:00.375Z,11.43
2023-01-01T16:46:44.464Z,11.48
2023-01-01T16:49:28.379Z,11.42
2023-01-01T16:52:13.846Z,11.03
2023-01-01T16:54:58.080Z,10.76
2023-01-01T16:57:43.689Z,10.83
2023-01-01T17:00:28.073Z,10.60
2023-01-01T17:03:12.275Z,10.98
2023-01-01T17:05:56.247Z,10.81
2023-01-01T17:08:41.554Z,10.75
2023-01-01T17:11:25.967Z,10.73
2023-01-01T17:14:11.300Z,10.35
2023-01-01T17:16:56.478Z,10.44
2023-01-01T17:19:40.350Z,10.61
2023-01-01T17:22:26.745Z,10.53
2023-01-01T17:25:13.127Z,10.47
2023-01-01T17:27:56.966Z,10.53
2023-01-01T17:30:40.833Z,10.44
2023-01-01T17:33:24.615Z,9.71
2023-01-01T17:36:09.817Z,10.76
2023-01-01T17:38:53.691Z,10.69
2023-01-01T17:41:40.062Z,10.83
2023-01-01T17:44:24.023Z,10.73
2023-01-01T17:47:08.782Z,10.45
2023-01-01T17:49:52.591Z,10.58
2023-01-01T17:52:36.392Z,10.44
2023-01-01T17:55:20.205Z,10.33
2023-01-01T17:58:05.516Z,10.52
2023-01-01T18:00:49.355Z,10.46
2023-01-01T18:03:33.187Z,10.52
2023-01-01T18:06:17.158Z,10.44
2023-01-01T18:09:03.125Z,10.24
2023-01-01T18:11:47.893Z,10.36
2023-01-01T18:14:33.139Z,10.29
2023-01-01T18:17:17.005Z,10.21
2023-01-01T18:20:01.172Z,10.10
2023-01-01T18:22:47.247Z,10.16
2023-01-01T18:25:30.996Z,10.21
2023-01-01T18:28:14.873Z,10.09
2023-01-01T18:31:07.521Z,10.10
2023-01-01T18:33:51.682Z,9.99
2023-01-01T18:36:36.176Z,10.05
2023-01-01T18:39:23.838Z,10.18
2023-01-01T18:42:21.046Z,9.54
2023-01-01T18:45:14.680Z,9.91
2023-01-01T18:48:02.208Z,10.01
2023-01-01T18:50:45.977Z,9.99
2023-01-01T18:53:31.215Z,9.98
2023-01-01T18:56:16.530Z,9.99
2023-01-01T18:59:00.613Z,10.00
2023-01-01T19:01:45.676Z,9.96
2023-01-01T19:04:30.973Z,9.94
2023-01-01T19:07:16.353Z,9.95
2023-01-01T19:10:00.248Z,9.84
2023-01-01T19:12:44.907Z,9.76
2023-01-01T19:15:28.806Z,9.81
2023-01-01T19:18:17.000Z,9.65
2023-01-01T19:21:16.107Z,9.84
2023-01-01T19:24:02.253Z,9.74
2023-01-01T19:26:46.756Z,9.25
2023-01-01T19:29:31.409Z,9.48
2023-01-01T19:32:15.275Z,9.46
2023-01-01T19:34:59.131Z,9.66
2023-01-01T19:37:44.291Z,9.66
2023-01-01T19:40:28.535Z,9.64
2023-01-01T19:43:12.560Z,9.48
2023-01-01T19:45:56.809Z,9.12
2023-01-01T19:48:40.826Z,9.43
2023-01-01T19:51:24.887Z,9.01
2023-01-01T19:54:10.839Z,8.81
2023-01-01T19:56:55.017Z,8.96
2023-01-01T19:59:39.047Z,9.09
2023-01-01T20:02:45.209Z,9.00
2023-01-01T20:05:33.268Z,9.23
2023-01-01T20:08:19.051Z,9.26
2023-01-01T20:11:04.420Z,9.06
2023-01-01T20:13:48.475Z,9.28
2023-01-01T20:16:33.754Z,9.18
2023-01-01T20:19:17.856Z,8.97
2023-01-01T20:22:14.504Z,9.44
2023-01-01T20:24:58.834Z,9.32
2023-01-01T20:27:57.989Z,9.18
2023-01-01T20:30:42.002Z,9.11
2023-01-01T20:33:26.034Z,9.46
2023-01-01T20:36:28.605Z,9.12
2023-01-01T20:39:12.497Z,9.49
2023-01-01T20:41:56.769Z,9.50
2023-01-01T20:44:43.411Z,9.29
2023-01-01T20:47:27.456Z,9.49
2023-01-01T20:50:11.936Z,9.56
2023-01-01T20:52:55.975Z,9.77
2023-01-01T20:55:39.990Z,9.45
2023-01-01T20:58:23.959Z,9.76
2023-01-01T21:01:09.472Z,9.55
2023-01-01T21:03:53.608Z,9.37
2023-01-01T21:06:37.783Z,9.39
2023-01-01T21:09:21.799Z,9.19
2023-01-01T21:12:06.750Z,9.01
2023-01-01T21:14:51.255Z,9.00
2023-01-01T21:17:37.693Z,9.02
2023-01-01T21:20:21.866Z,9.04
2023-01-01T21:23:11.759Z,8.98
2023-01-01T21:25:55.982Z,9.11
2023-01-01T21:28:39.913Z,9.29
2023-01-01T21:31:24.081Z,9.36
2023-01-01T21:34:23.723Z,9.26
2023-01-01T21:37:14.973Z,9.29
2023-01-01T21:39:58.835Z,8.84
2023-01-01T21:42:42.818Z,9.17
2023-01-01T21:45:30.668Z,9.16
2023-01-01T21:48:17.837Z,8.88
2023-01-01T21:51:03.588Z,9.12
2023-01-01T21:53:47.636Z,8.89
2023-01-01T21:56:36.505Z,9.18
2023-01-01T21:59:27.671Z,9.15
2023-01-01T22:02:32.780Z,9.03
2023-01-01T22:05:30.340Z,8.75
2023-01-01T22:08:26.638Z,8.74
2023-01-01T22:11:19.602Z,9.13
2023-01-01T22:14:12.254Z,8.69
2023-01-01T22:16:57.264Z,8.83
2023-01-01T22:19:42.537Z,9.00
2023-01-01T22:22:33.039Z,8.90
2023-01-01T22:25:27.825Z,8.70
2023-01-01T22:28:20.414Z,9.11
2023-01-01T22:31:04.361Z,8.86
2023-01-01T22:33:49.563Z,8.68
2023-01-01T22:36:36.561Z,8.75
2023-01-01T22:39:28.145Z,8.60
2023-01-01T22:42:16.831Z,8.62
2023-01-01T22:45:00.912Z,8.58
2023-01-01T22:47:45.808Z,8.36
2023-01-01T22:50:31.516Z,8.78
2023-01-01T22:53:15.347Z,8.15
2023-01-01T22:55:59.275Z,8.97
2023-01-01T22:58:44.460Z,8.81
2023-01-01T23:01:28.289Z,9.02
2023-01-01T23:04:12.072Z,8.78
2023-01-01T23:06:56.003Z,8.87
2023-01-01T23:09:39.820Z,9.10
2023-01-01T23:12:23.790Z,9.20
2023-01-01T23:15:27.636Z,9.19
2023-01-01T23:18:11.719Z,9.07
2023-01-01T23:20:55.627Z,8.83
2023-01-01T23:23:41.167Z,8.91
2023-01-01T23:26:25.655Z,8.88
2023-01-01T23:29:12.401Z,8.97
2023-01-01T23:31:57.822Z,8.89
2023-01-01T23:34:42.476Z,8.59
2023-01-01T23:37:27.605Z,8.71
2023-01-01T23:40:12.720Z,8.78
2023-01-01T23:42:56.514Z,8.56
2023-01-01T23:45:40.759Z,8.66
2023-01-01T23:48:25.943Z,8.47
2023-01-01T23:51:10.020Z,8.55
2023-01-01T23:53:53.874Z,8.67
2023-01-01T23:56:37.808Z,8.88
2023-01-01T23:59:21.699Z,8.69
